sensor_id;sensor_type;location;lat;lon;timestamp;pressure;altitude;pressure_sealevel;temperature;humidity
76050;BME280;64967;50.234;19.224;2023-08-24T00:01:55;74816.66;;;-143.90;84.71
76050;BME280;64967;50.234;19.224;2023-08-24T00:04:22;74826.97;;;-143.90;84.58
76050;BME280;64967;50.234;19.224;2023-08-24T00:06:49;74816.66;;;-143.90;83.88
76050;BME280;64967;50.234;19.224;2023-08-24T00:09:15;74812.50;;;-143.90;83.73
76050;BME280;64967;50.234;19.224;2023-08-24T00:11:42;74824.91;;;-143.90;83.88
76050;BME280;64967;50.234;19.224;2023-08-24T00:14:09;74833.19;;;-143.90;83.76
76050;BME280;64967;50.234;19.224;2023-08-24T00:16:36;74829.03;;;-143.90;83.78
76050;BME280;64967;50.234;19.224;2023-08-24T00:19:03;74833.19;;;-143.90;83.45
76050;BME280;64967;50.234;19.224;2023-08-24T00:21:30;74831.13;;;-143.90;83.43
76050;BME280;64967;50.234;19.224;2023-08-24T00:23:56;74837.31;;;-143.90;83.83
76050;BME280;64967;50.234;19.224;2023-08-24T00:26:23;74837.31;;;-143.90;83.54
76050;BME280;64967;50.234;19.224;2023-08-24T00:28:50;74843.53;;;-143.90;84.09
76050;BME280;64967;50.234;19.224;2023-08-24T00:31:17;74845.59;;;-143.90;84.02
76050;BME280;64967;50.234;19.224;2023-08-24T00:33:43;74849.72;;;-143.90;83.74
76050;BME280;64967;50.234;19.224;2023-08-24T00:36:10;74845.59;;;-143.90;83.54
76050;BME280;64967;50.234;19.224;2023-08-24T00:38:37;74849.72;;;-143.90;82.79
76050;BME280;64967;50.234;19.224;2023-08-24T00:41:03;74849.72;;;-143.90;83.24
76050;BME280;64967;50.234;19.224;2023-08-24T00:43:31;74862.13;;;-143.90;82.83
76050;BME280;64967;50.234;19.224;2023-08-24T00:46:00;74870.38;;;-143.90;83.05
76050;BME280;64967;50.234;19.224;2023-08-24T00:48:28;74876.59;;;-143.90;83.46
76050;BME280;64967;50.234;19.224;2023-08-24T00:50:57;74895.19;;;-143.90;84.52
76050;BME280;64967;50.234;19.224;2023-08-24T00:53:26;74903.47;;;-143.90;85.19
76050;BME280;64967;50.234;19.224;2023-08-24T00:55:53;74905.53;;;-143.90;85.58
76050;BME280;64967;50.234;19.224;2023-08-24T00:58:20;74903.47;;;-143.90;85.67
76050;BME280;64967;50.234;19.224;2023-08-24T01:00:49;74903.47;;;-143.90;85.81
76050;BME280;64967;50.234;19.224;2023-08-24T01:03:17;74903.47;;;-143.90;86.01
76050;BME280;64967;50.234;19.224;2023-08-24T01:05:44;74899.34;;;-143.90;85.17
76050;BME280;64967;50.234;19.224;2023-08-24T01:08:12;74899.34;;;-143.90;84.35
76050;BME280;64967;50.234;19.224;2023-08-24T01:16:29;74924.13;;;-143.90;85.99
76050;BME280;64967;50.234;19.224;2023-08-24T01:18:59;74934.47;;;-143.90;86.81
76050;BME280;64967;50.234;19.224;2023-08-24T01:21:29;74940.69;;;-143.90;88.01
76050;BME280;64967;50.234;19.224;2023-08-24T01:24:12;74953.09;;;-143.90;88.64
76050;BME280;64967;50.234;19.224;2023-08-24T01:26:41;74946.88;;;-143.90;89.42
76050;BME280;64967;50.234;19.224;2023-08-24T01:29:08;74955.16;;;-143.90;89.17
76050;BME280;64967;50.234;19.224;2023-08-24T01:31:35;74965.50;;;-143.90;88.38
76050;BME280;64967;50.234;19.224;2023-08-24T01:34:01;74961.34;;;-143.90;88.03
76050;BME280;64967;50.234;19.224;2023-08-24T01:36:28;74957.22;;;-143.90;87.18
76050;BME280;64967;50.234;19.224;2023-08-24T01:39:12;74946.88;;;-143.90;86.79
76050;BME280;64967;50.234;19.224;2023-08-24T01:41:44;74940.69;;;-143.90;86.70
76050;BME280;64967;50.234;19.224;2023-08-24T01:44:18;74946.88;;;-143.90;86.67
76050;BME280;64967;50.234;19.224;2023-08-24T01:46:48;74955.16;;;-143.90;86.12
76050;BME280;64967;50.234;19.224;2023-08-24T01:49:17;74959.28;;;-143.90;86.59
76050;BME280;64967;50.234;19.224;2023-08-24T01:51:45;74973.75;;;-143.90;87.42
76050;BME280;64967;50.234;19.224;2023-08-24T01:54:12;74975.81;;;-143.90;87.79
76050;BME280;64967;50.234;19.224;2023-08-24T01:56:39;74982.03;;;-143.90;87.82
76050;BME280;64967;50.234;19.224;2023-08-24T01:59:06;74990.28;;;-143.90;88.29
76050;BME280;64967;50.234;19.224;2023-08-24T02:01:33;75010.97;;;-143.90;88.12
76050;BME280;64967;50.234;19.224;2023-08-24T02:03:59;75010.97;;;-143.90;88.81
76050;BME280;64967;50.234;19.224;2023-08-24T02:06:26;75008.91;;;-143.90;88.85
76050;BME280;64967;50.234;19.224;2023-08-24T02:08:53;75002.69;;;-143.90;87.89
76050;BME280;64967;50.234;19.224;2023-08-24T02:11:20;75006.84;;;-143.90;87.91
76050;BME280;64967;50.234;19.224;2023-08-24T02:13:47;75006.84;;;-143.90;87.65
76050;BME280;64967;50.234;19.224;2023-08-24T02:16:13;74990.28;;;-143.90;87.68
76050;BME280;64967;50.234;19.224;2023-08-24T02:18:40;74990.28;;;-143.90;86.92
76050;BME280;64967;50.234;19.224;2023-08-24T02:21:08;74979.97;;;-143.90;86.38
76050;BME280;64967;50.234;19.224;2023-08-24T02:23:35;74990.28;;;-143.90;85.77
76050;BME280;64967;50.234;19.224;2023-08-24T02:26:01;74994.44;;;-143.90;85.70
76050;BME280;64967;50.234;19.224;2023-08-24T02:28:29;74996.50;;;-143.90;85.84
76050;BME280;64967;50.234;19.224;2023-08-24T02:31:00;75002.69;;;-143.90;85.70
76050;BME280;64967;50.234;19.224;2023-08-24T02:33:27;75002.69;;;-143.90;85.39
76050;BME280;64967;50.234;19.224;2023-08-24T02:35:54;75002.69;;;-143.90;84.30
76050;BME280;64967;50.234;19.224;2023-08-24T02:38:21;75010.97;;;-143.90;83.54
76050;BME280;64967;50.234;19.224;2023-08-24T02:40:47;75019.22;;;-143.90;83.24
76050;BME280;64967;50.234;19.224;2023-08-24T02:43:14;75025.44;;;-143.90;84.06
76050;BME280;64967;50.234;19.224;2023-08-24T02:45:40;75031.63;;;-143.90;84.56
76050;BME280;64967;50.234;19.224;2023-08-24T02:48:07;75041.97;;;-143.90;85.42
76050;BME280;64967;50.234;19.224;2023-08-24T02:50:34;75048.19;;;-143.90;86.15
76050;BME280;64967;50.234;19.224;2023-08-24T02:53:00;75041.97;;;-143.90;86.76
76050;BME280;64967;50.234;19.224;2023-08-24T02:55:32;75039.91;;;-143.90;86.23
76050;BME280;64967;50.234;19.224;2023-08-24T02:57:58;75031.63;;;-143.90;86.28
76050;BME280;64967;50.234;19.224;2023-08-24T03:00:25;75031.63;;;-143.90;85.38
76050;BME280;64967;50.234;19.224;2023-08-24T03:02:51;75044.03;;;-143.90;86.19
76050;BME280;64967;50.234;19.224;2023-08-24T03:05:18;75048.19;;;-143.90;86.11
76050;BME280;64967;50.234;19.224;2023-08-24T03:07:45;75046.09;;;-143.90;86.60
76050;BME280;64967;50.234;19.224;2023-08-24T03:10:11;75039.91;;;-143.90;86.21
76050;BME280;64967;50.234;19.224;2023-08-24T03:12:38;75041.97;;;-143.90;85.77
76050;BME280;64967;50.234;19.224;2023-08-24T03:15:05;75039.91;;;-143.90;85.62
76050;BME280;64967;50.234;19.224;2023-08-24T03:17:32;75056.44;;;-143.90;86.23
76050;BME280;64967;50.234;19.224;2023-08-24T03:19:59;75056.44;;;-143.90;86.75
76050;BME280;64967;50.234;19.224;2023-08-24T03:22:25;75054.38;;;-143.90;87.09
76050;BME280;64967;50.234;19.224;2023-08-24T03:24:52;75052.31;;;-143.90;87.88
76050;BME280;64967;50.234;19.224;2023-08-24T03:27:18;75052.31;;;-143.90;87.52
76050;BME280;64967;50.234;19.224;2023-08-24T03:29:45;75044.03;;;-143.90;87.89
76050;BME280;64967;50.234;19.224;2023-08-24T03:32:12;75035.78;;;-143.90;86.99
76050;BME280;64967;50.234;19.224;2023-08-24T03:34:38;75037.84;;;-143.90;85.98
76050;BME280;64967;50.234;19.224;2023-08-24T03:37:06;75035.78;;;-143.90;84.98
76050;BME280;64967;50.234;19.224;2023-08-24T03:39:33;75046.09;;;-143.90;84.26
76050;BME280;64967;50.234;19.224;2023-08-24T03:41:59;75050.25;;;-143.90;84.33
76050;BME280;64967;50.234;19.224;2023-08-24T03:44:26;75052.31;;;-143.90;84.55
76050;BME280;64967;50.234;19.224;2023-08-24T03:46:52;75054.38;;;-143.90;84.70
76050;BME280;64967;50.234;19.224;2023-08-24T03:49:19;75046.09;;;-143.90;84.95
76050;BME280;64967;50.234;19.224;2023-08-24T03:51:46;75048.19;;;-143.90;85.28
76050;BME280;64967;50.234;19.224;2023-08-24T03:54:12;75050.25;;;-143.90;84.63
76050;BME280;64967;50.234;19.224;2023-08-24T03:56:39;75044.03;;;-143.90;83.92
76050;BME280;64967;50.234;19.224;2023-08-24T03:59:06;75056.44;;;-143.90;83.60
76050;BME280;64967;50.234;19.224;2023-08-24T04:01:32;75056.44;;;-143.90;84.42
76050;BME280;64967;50.234;19.224;2023-08-24T04:03:59;75056.44;;;-143.90;84.44
76050;BME280;64967;50.234;19.224;2023-08-24T04:06:27;75058.50;;;-143.90;85.01
76050;BME280;64967;50.234;19.224;2023-08-24T04:08:53;75058.50;;;-143.90;85.22
76050;BME280;64967;50.234;19.224;2023-08-24T04:11:20;75056.44;;;-143.90;84.94
76050;BME280;64967;50.234;19.224;2023-08-24T04:13:47;75046.09;;;-143.90;85.12
76050;BME280;64967;50.234;19.224;2023-08-24T04:16:13;75039.91;;;-143.90;85.65
76050;BME280;64967;50.234;19.224;2023-08-24T04:18:40;75035.78;;;-143.90;85.40
76050;BME280;64967;50.234;19.224;2023-08-24T04:21:07;75023.38;;;-143.90;85.74
76050;BME280;64967;50.234;19.224;2023-08-24T04:23:33;75019.22;;;-143.90;85.11
76050;BME280;64967;50.234;19.224;2023-08-24T04:26:00;75021.31;;;-143.90;85.24
76050;BME280;64967;50.234;19.224;2023-08-24T04:28:26;75015.09;;;-143.90;84.63
76050;BME280;64967;50.234;19.224;2023-08-24T04:30:54;75017.16;;;-143.90;84.87
76050;BME280;64967;50.234;19.224;2023-08-24T04:33:22;75017.16;;;-143.90;85.18
76050;BME280;64967;50.234;19.224;2023-08-24T04:35:49;75008.91;;;-143.90;85.22
76050;BME280;64967;50.234;19.224;2023-08-24T04:38:16;74994.44;;;-143.90;85.08
76050;BME280;64967;50.234;19.224;2023-08-24T04:40:55;74994.44;;;-143.90;85.12
76050;BME280;64967;50.234;19.224;2023-08-24T04:43:23;74990.28;;;-143.90;85.44
76050;BME280;64967;50.234;19.224;2023-08-24T04:45:52;74977.88;;;-143.90;85.01
76050;BME280;64967;50.234;19.224;2023-08-24T04:48:22;74979.97;;;-143.90;85.22
76050;BME280;64967;50.234;19.224;2023-08-24T04:50:50;74984.09;;;-143.90;85.72
76050;BME280;64967;50.234;19.224;2023-08-24T04:53:18;74963.41;;;-143.90;85.90
76050;BME280;64967;50.234;19.224;2023-08-24T04:55:45;74957.22;;;-143.90;86.09
76050;BME280;64967;50.234;19.224;2023-08-24T04:58:12;74948.94;;;-143.90;85.97
76050;BME280;64967;50.234;19.224;2023-08-24T05:00:40;74932.41;;;-143.90;85.52
76050;BME280;64967;50.234;19.224;2023-08-24T05:03:07;74924.13;;;-143.90;85.34
76050;BME280;64967;50.234;19.224;2023-08-24T05:05:36;74911.72;;;-143.90;85.74
76050;BME280;64967;50.234;19.224;2023-08-24T05:08:04;74901.41;;;-143.90;86.10
76050;BME280;64967;50.234;19.224;2023-08-24T05:10:39;74882.78;;;-143.90;85.82
76050;BME280;64967;50.234;19.224;2023-08-24T05:13:06;74870.38;;;-143.90;86.03
76050;BME280;64967;50.234;19.224;2023-08-24T05:15:32;74860.06;;;-143.90;85.57
76050;BME280;64967;50.234;19.224;2023-08-24T05:17:59;74849.72;;;-143.90;85.55
76050;BME280;64967;50.234;19.224;2023-08-24T05:20:26;74826.97;;;-143.90;86.17
76050;BME280;64967;50.234;19.224;2023-08-24T05:22:53;74804.25;;;-143.90;85.50
76050;BME280;64967;50.234;19.224;2023-08-24T05:25:22;74783.56;;;-143.90;85.17
76050;BME280;64967;50.234;19.224;2023-08-24T05:27:49;74764.97;;;-143.90;84.40
76050;BME280;64967;50.234;19.224;2023-08-24T05:30:16;74750.50;;;-143.90;83.73
76050;BME280;64967;50.234;19.224;2023-08-24T05:32:43;74729.81;;;-143.90;83.92
76050;BME280;64967;50.234;19.224;2023-08-24T05:35:10;74707.09;;;-143.90;83.40
76050;BME280;64967;50.234;19.224;2023-08-24T05:37:37;74671.94;;;-143.90;82.99
76050;BME280;64967;50.234;19.224;2023-08-24T05:40:04;74622.34;;;-143.90;81.44
76050;BME280;64967;50.234;19.224;2023-08-24T05:42:31;74578.91;;;-143.90;79.37
76050;BME280;64967;50.234;19.224;2023-08-24T05:44:58;74537.56;;;-143.90;78.00
76050;BME280;64967;50.234;19.224;2023-08-24T05:47:25;74483.84;;;-143.90;77.40
76050;BME280;64967;50.234;19.224;2023-08-24T05:49:51;74446.63;;;-143.90;75.74
76050;BME280;64967;50.234;19.224;2023-08-24T05:52:18;74421.81;;;-143.90;74.01
76050;BME280;64967;50.234;19.224;2023-08-24T05:54:45;74382.56;;;-143.90;72.41
76050;BME280;64967;50.234;19.224;2023-08-24T05:57:11;74349.47;;;-143.90;71.97
76050;BME280;64967;50.234;19.224;2023-08-24T05:59:38;74314.34;;;-143.90;72.28
76050;BME280;64967;50.234;19.224;2023-08-24T06:02:05;74285.41;;;-143.90;72.07
76050;BME280;64967;50.234;19.224;2023-08-24T06:04:31;74281.28;;;-143.90;69.34
76050;BME280;64967;50.234;19.224;2023-08-24T06:06:58;74260.59;;;-143.90;68.64
76050;BME280;64967;50.234;19.224;2023-08-24T06:09:25;74239.94;;;-143.90;67.78
76050;BME280;64967;50.234;19.224;2023-08-24T06:11:52;74221.31;;;-143.90;67.82
76050;BME280;64967;50.234;19.224;2023-08-24T06:14:19;74190.31;;;-143.90;69.67
76050;BME280;64967;50.234;19.224;2023-08-24T06:16:45;74163.47;;;-143.90;67.92
76050;BME280;64967;50.234;19.224;2023-08-24T06:19:12;74155.19;;;-143.90;65.30
76050;BME280;64967;50.234;19.224;2023-08-24T06:21:39;74144.84;;;-143.90;64.93
76050;BME280;64967;50.234;19.224;2023-08-24T06:24:05;74124.19;;;-143.90;65.22
76050;BME280;64967;50.234;19.224;2023-08-24T06:26:32;74097.31;;;-143.90;63.16
76050;BME280;64967;50.234;19.224;2023-08-24T06:28:58;74086.97;;;-143.90;62.06
76050;BME280;64967;50.234;19.224;2023-08-24T06:31:25;74072.50;;;-143.90;62.91
76050;BME280;64967;50.234;19.224;2023-08-24T06:33:52;74058.06;;;-143.90;60.83
76050;BME280;64967;50.234;19.224;2023-08-24T06:36:19;74037.38;;;-143.90;62.08
76050;BME280;64967;50.234;19.224;2023-08-24T06:38:46;74029.13;;;-143.90;61.47
76050;BME280;64967;50.234;19.224;2023-08-24T06:41:12;74016.72;;;-143.90;60.63
76050;BME280;64967;50.234;19.224;2023-08-24T06:43:39;74020.84;;;-143.90;59.26
76050;BME280;64967;50.234;19.224;2023-08-24T06:46:06;74006.38;;;-143.90;59.09
76050;BME280;64967;50.234;19.224;2023-08-24T06:48:36;74002.25;;;-143.90;58.98
76050;BME280;64967;50.234;19.224;2023-08-24T06:51:05;73985.72;;;-143.90;58.21
76050;BME280;64967;50.234;19.224;2023-08-24T06:53:32;73993.97;;;-143.90;57.71
76050;BME280;64967;50.234;19.224;2023-08-24T06:55:59;73989.84;;;-143.90;57.28
76050;BME280;64967;50.234;19.224;2023-08-24T06:58:25;73983.66;;;-143.90;59.84
76050;BME280;64967;50.234;19.224;2023-08-24T07:00:52;73989.84;;;-143.90;60.05
76050;BME280;64967;50.234;19.224;2023-08-24T07:03:19;73985.72;;;-143.90;58.47
76050;BME280;64967;50.234;19.224;2023-08-24T07:05:47;73969.19;;;-143.90;59.66
76050;BME280;64967;50.234;19.224;2023-08-24T07:08:13;73977.44;;;-143.90;60.86
76050;BME280;64967;50.234;19.224;2023-08-24T07:10:41;73965.03;;;-143.90;59.33
76050;BME280;64967;50.234;19.224;2023-08-24T07:13:08;73954.72;;;-143.90;58.56
76050;BME280;64967;50.234;19.224;2023-08-24T07:15:35;73956.78;;;-143.90;60.50
76050;BME280;64967;50.234;19.224;2023-08-24T07:18:02;73948.50;;;-143.90;58.32
76050;BME280;64967;50.234;19.224;2023-08-24T07:20:29;73956.78;;;-143.90;58.26
76050;BME280;64967;50.234;19.224;2023-08-24T07:22:56;73944.38;;;-143.90;56.80
76050;BME280;64967;50.234;19.224;2023-08-24T07:25:24;73936.09;;;-143.90;59.89
76050;BME280;64967;50.234;19.224;2023-08-24T07:27:50;73940.25;;;-143.90;58.65
76050;BME280;64967;50.234;19.224;2023-08-24T07:30:25;73934.03;;;-143.90;58.77
76050;BME280;64967;50.234;19.224;2023-08-24T07:33:00;73923.72;;;-143.90;59.27
76050;BME280;64967;50.234;19.224;2023-08-24T07:35:27;73923.72;;;-143.90;58.71
76050;BME280;64967;50.234;19.224;2023-08-24T07:37:55;73921.63;;;-143.90;56.53
76050;BME280;64967;50.234;19.224;2023-08-24T07:40:22;73948.50;;;-143.90;57.37
76050;BME280;64967;50.234;19.224;2023-08-24T07:42:51;73927.84;;;-143.90;58.55
76050;BME280;64967;50.234;19.224;2023-08-24T07:45:23;73907.16;;;-143.90;57.83
76050;BME280;64967;50.234;19.224;2023-08-24T07:47:50;73892.69;;;-143.90;56.89
76050;BME280;64967;50.234;19.224;2023-08-24T07:50:17;73882.38;;;-143.90;57.07
76050;BME280;64967;50.234;19.224;2023-08-24T07:52:44;73869.97;;;-143.90;56.53
76050;BME280;64967;50.234;19.224;2023-08-24T07:55:11;73867.91;;;-143.90;55.53
76050;BME280;64967;50.234;19.224;2023-08-24T07:57:38;73861.69;;;-143.90;53.49
76050;BME280;64967;50.234;19.224;2023-08-24T08:00:05;73843.09;;;-143.90;54.22
76050;BME280;64967;50.234;19.224;2023-08-24T08:02:35;73838.97;;;-143.90;52.38
76050;BME280;64967;50.234;19.224;2023-08-24T08:05:04;73828.63;;;-143.90;52.50
76050;BME280;64967;50.234;19.224;2023-08-24T08:07:34;73832.78;;;-143.90;52.95
76050;BME280;64967;50.234;19.224;2023-08-24T08:10:00;73849.31;;;-143.90;51.72
76050;BME280;64967;50.234;19.224;2023-08-24T08:12:27;73834.84;;;-143.90;52.51
76050;BME280;64967;50.234;19.224;2023-08-24T08:14:54;73816.25;;;-143.90;53.67
76050;BME280;64967;50.234;19.224;2023-08-24T08:17:20;73830.69;;;-143.90;54.50
76050;BME280;64967;50.234;19.224;2023-08-24T08:19:47;73822.44;;;-143.90;51.90
76050;BME280;64967;50.234;19.224;2023-08-24T08:22:14;73853.44;;;-143.90;51.61
76050;BME280;64967;50.234;19.224;2023-08-24T08:24:40;73834.84;;;-143.90;52.05
76050;BME280;64967;50.234;19.224;2023-08-24T08:27:07;73816.25;;;-143.90;51.63
76050;BME280;64967;50.234;19.224;2023-08-24T08:29:34;73810.03;;;-143.90;50.36
76050;BME280;64967;50.234;19.224;2023-08-24T08:32:00;73772.84;;;-143.90;50.47
76050;BME280;64967;50.234;19.224;2023-08-24T08:34:27;73754.25;;;-143.90;49.39
76050;BME280;64967;50.234;19.224;2023-08-24T08:36:54;73741.84;;;-143.90;48.42
76050;BME280;64967;50.234;19.224;2023-08-24T08:39:20;73735.63;;;-143.90;48.26
76050;BME280;64967;50.234;19.224;2023-08-24T08:41:50;73772.84;;;-143.90;45.82
76050;BME280;64967;50.234;19.224;2023-08-24T08:44:18;73745.97;;;-143.90;45.85
76050;BME280;64967;50.234;19.224;2023-08-24T08:46:46;73733.56;;;-143.90;46.51
76050;BME280;64967;50.234;19.224;2023-08-24T08:49:13;73727.38;;;-143.90;45.03
76050;BME280;64967;50.234;19.224;2023-08-24T08:51:43;73721.16;;;-143.90;46.85
76050;BME280;64967;50.234;19.224;2023-08-24T08:54:11;73700.50;;;-143.90;48.97
76050;BME280;64967;50.234;19.224;2023-08-24T08:56:38;73712.91;;;-143.90;45.93
76050;BME280;64967;50.234;19.224;2023-08-24T08:59:07;73688.09;;;-143.90;45.67
76050;BME280;64967;50.234;19.224;2023-08-24T09:01:34;73679.84;;;-143.90;44.01
76050;BME280;64967;50.234;19.224;2023-08-24T09:04:02;73669.50;;;-143.90;45.11
76050;BME280;64967;50.234;19.224;2023-08-24T09:06:29;73655.03;;;-143.90;44.98
76050;BME280;64967;50.234;19.224;2023-08-24T09:08:56;73646.78;;;-143.90;44.46
76050;BME280;64967;50.234;19.224;2023-08-24T09:11:23;73669.50;;;-143.90;40.79
76050;BME280;64967;50.234;19.224;2023-08-24T09:13:50;73681.91;;;-143.90;45.66
76050;BME280;64967;50.234;19.224;2023-08-24T09:16:17;73665.38;;;-143.90;42.50
76050;BME280;64967;50.234;19.224;2023-08-24T09:18:46;73644.69;;;-143.90;42.71
76050;BME280;64967;50.234;19.224;2023-08-24T09:21:14;73630.25;;;-143.90;42.80
76050;BME280;64967;50.234;19.224;2023-08-24T09:24:02;73646.78;;;-143.90;41.63
76050;BME280;64967;50.234;19.224;2023-08-24T09:26:31;73657.09;;;-143.90;41.11
76050;BME280;64967;50.234;19.224;2023-08-24T09:28:57;73630.25;;;-143.90;42.59
76050;BME280;64967;50.234;19.224;2023-08-24T09:31:35;73609.56;;;-143.90;42.49
76050;BME280;64967;50.234;19.224;2023-08-24T09:34:06;73603.38;;;-143.90;40.71
76050;BME280;64967;50.234;19.224;2023-08-24T09:36:33;73593.03;;;-143.90;40.64
76050;BME280;64967;50.234;19.224;2023-08-24T09:39:01;73590.97;;;-143.90;40.65
76050;BME280;64967;50.234;19.224;2023-08-24T09:41:38;73584.78;;;-143.90;40.12
76050;BME280;64967;50.234;19.224;2023-08-24T09:44:06;73570.31;;;-143.90;40.83
76050;BME280;64967;50.234;19.224;2023-08-24T09:46:34;73572.38;;;-143.90;40.00
76050;BME280;64967;50.234;19.224;2023-08-24T09:49:05;73568.25;;;-143.90;40.35
76050;BME280;64967;50.234;19.224;2023-08-24T09:51:35;73559.97;;;-143.90;41.40
76050;BME280;64967;50.234;19.224;2023-08-24T09:54:06;73551.72;;;-143.90;41.11
76050;BME280;64967;50.234;19.224;2023-08-24T09:56:39;73551.72;;;-143.90;39.44
76050;BME280;64967;50.234;19.224;2023-08-24T09:59:14;73549.63;;;-143.90;39.39
76050;BME280;64967;50.234;19.224;2023-08-24T10:01:48;73531.03;;;-143.90;39.57
76050;BME280;64967;50.234;19.224;2023-08-24T10:04:23;73526.91;;;-143.90;38.92
76050;BME280;64967;50.234;19.224;2023-08-24T10:07:05;73510.38;;;-143.90;38.47
76050;BME280;64967;50.234;19.224;2023-08-24T10:09:38;73508.31;;;-143.90;38.37
76050;BME280;64967;50.234;19.224;2023-08-24T10:12:07;73497.97;;;-143.90;38.08
76050;BME280;64967;50.234;19.224;2023-08-24T10:17:03;73489.72;;;-143.90;38.96
76050;BME280;64967;50.234;19.224;2023-08-24T10:19:30;73495.91;;;-143.90;38.71
76050;BME280;64967;50.234;19.224;2023-08-24T10:21:59;73518.66;;;-143.90;37.32
76050;BME280;64967;50.234;19.224;2023-08-24T10:24:27;73518.66;;;-143.90;39.11
76050;BME280;64967;50.234;19.224;2023-08-24T10:26:55;73491.78;;;-143.90;39.30
76050;BME280;64967;50.234;19.224;2023-08-24T10:29:23;73491.78;;;-143.90;37.93
76050;BME280;64967;50.234;19.224;2023-08-24T10:31:51;73479.38;;;-143.90;37.54
76050;BME280;64967;50.234;19.224;2023-08-24T10:34:18;73497.97;;;-143.90;37.84
76050;BME280;64967;50.234;19.224;2023-08-24T10:36:47;73481.44;;;-143.90;38.72
76050;BME280;64967;50.234;19.224;2023-08-24T10:39:14;73489.72;;;-143.90;38.06
76050;BME280;64967;50.234;19.224;2023-08-24T10:41:49;73504.19;;;-143.90;38.39
76050;BME280;64967;50.234;19.224;2023-08-24T10:44:21;73475.25;;;-143.90;37.76
76050;BME280;64967;50.234;19.224;2023-08-24T10:47:22;73479.38;;;-143.90;38.14
76050;BME280;64967;50.234;19.224;2023-08-24T10:50:01;73469.03;;;-143.90;38.19
76050;BME280;64967;50.234;19.224;2023-08-24T10:52:32;73440.13;;;-143.90;37.03
76050;BME280;64967;50.234;19.224;2023-08-24T10:55:04;73425.66;;;-143.90;39.03
76050;BME280;64967;50.234;19.224;2023-08-24T10:57:38;73446.31;;;-143.90;37.61
76050;BME280;64967;50.234;19.224;2023-08-24T11:00:07;73415.31;;;-143.90;38.43
76050;BME280;64967;50.234;19.224;2023-08-24T11:02:46;73450.44;;;-143.90;36.92
76050;BME280;64967;50.234;19.224;2023-08-24T11:10:24;73419.44;;;-143.90;37.40
76050;BME280;64967;50.234;19.224;2023-08-24T11:15:34;73394.66;;;-143.90;37.15
76050;BME280;64967;50.234;19.224;2023-08-24T11:18:12;73413.25;;;-143.90;36.39
76050;BME280;64967;50.234;19.224;2023-08-24T11:20:46;73419.44;;;-143.90;36.41
76050;BME280;64967;50.234;19.224;2023-08-24T11:23:17;73398.78;;;-143.90;37.24
76050;BME280;64967;50.234;19.224;2023-08-24T11:25:45;73394.66;;;-143.90;36.43
76050;BME280;64967;50.234;19.224;2023-08-24T11:28:17;73380.19;;;-143.90;36.68
76050;BME280;64967;50.234;19.224;2023-08-24T11:30:45;73367.78;;;-143.90;36.43
76050;BME280;64967;50.234;19.224;2023-08-24T11:33:12;73371.91;;;-143.90;36.21
76050;BME280;64967;50.234;19.224;2023-08-24T11:35:42;73371.91;;;-143.90;36.56
76050;BME280;64967;50.234;19.224;2023-08-24T11:38:09;73353.31;;;-143.90;37.30
76050;BME280;64967;50.234;19.224;2023-08-24T11:40:36;73345.06;;;-143.90;37.62
76050;BME280;64967;50.234;19.224;2023-08-24T11:43:04;73336.78;;;-143.90;38.07
76050;BME280;64967;50.234;19.224;2023-08-24T11:45:33;73318.19;;;-143.90;38.91
76050;BME280;64967;50.234;19.224;2023-08-24T11:48:02;73312.00;;;-143.90;37.64
76050;BME280;64967;50.234;19.224;2023-08-24T11:50:32;73307.84;;;-143.90;38.10
76050;BME280;64967;50.234;19.224;2023-08-24T11:52:58;73295.47;;;-143.90;35.41
76050;BME280;64967;50.234;19.224;2023-08-24T11:55:25;73320.25;;;-143.90;35.46
76050;BME280;64967;50.234;19.224;2023-08-24T11:57:53;73332.66;;;-143.90;35.09
76050;BME280;64967;50.234;19.224;2023-08-24T12:00:20;73351.25;;;-143.90;34.69
76050;BME280;64967;50.234;19.224;2023-08-24T12:02:48;73347.13;;;-143.90;34.62
76050;BME280;64967;50.234;19.224;2023-08-24T12:05:25;73320.25;;;-143.90;36.30
76050;BME280;64967;50.234;19.224;2023-08-24T12:07:53;73309.94;;;-143.90;36.44
76050;BME280;64967;50.234;19.224;2023-08-24T12:10:21;73295.47;;;-143.90;35.86
76050;BME280;64967;50.234;19.224;2023-08-24T12:12:48;73299.59;;;-143.90;35.71
76050;BME280;64967;50.234;19.224;2023-08-24T12:15:19;73299.59;;;-143.90;35.86
76050;BME280;64967;50.234;19.224;2023-08-24T12:17:47;73316.13;;;-143.90;35.09
76050;BME280;64967;50.234;19.224;2023-08-24T12:20:19;73297.53;;;-143.90;35.48
76050;BME280;64967;50.234;19.224;2023-08-24T12:22:52;73305.78;;;-143.90;36.08
76050;BME280;64967;50.234;19.224;2023-08-24T12:25:22;73289.25;;;-143.90;34.82
76050;BME280;64967;50.234;19.224;2023-08-24T12:28:08;73281.00;;;-143.90;35.96
76050;BME280;64967;50.234;19.224;2023-08-24T12:30:49;73276.88;;;-143.90;34.14
76050;BME280;64967;50.234;19.224;2023-08-24T12:33:28;73314.06;;;-143.90;35.72
76050;BME280;64967;50.234;19.224;2023-08-24T12:35:55;73312.00;;;-143.90;35.06
76050;BME280;64967;50.234;19.224;2023-08-24T12:38:23;73303.72;;;-143.90;35.61
76050;BME280;64967;50.234;19.224;2023-08-24T12:40:51;73287.19;;;-143.90;35.78
76050;BME280;64967;50.234;19.224;2023-08-24T12:43:18;73262.41;;;-143.90;34.84
76050;BME280;64967;50.234;19.224;2023-08-24T12:45:45;73254.13;;;-143.90;35.24
76050;BME280;64967;50.234;19.224;2023-08-24T12:48:11;73241.75;;;-143.90;35.56
76050;BME280;64967;50.234;19.224;2023-08-24T12:50:38;73223.13;;;-143.90;35.07
76050;BME280;64967;50.234;19.224;2023-08-24T12:53:05;73237.59;;;-143.90;35.04